sensor_id;sensor_type;location;lat;lon;timestamp;temperature;humidity
29551;DHT22;16488;52.396;10.696;2023-08-30T00:01:07;11.90;99.90
29551;DHT22;16488;52.396;10.696;2023-08-30T00:03:34;11.80;99.90
29551;DHT22;16488;52.396;10.696;2023-08-30T00:06:06;11.90;99.90
29551;DHT22;16488;52.396;10.696;2023-08-30T00:08:33;12.10;99.90
29551;DHT22;16488;52.396;10.696;2023-08-30T00:10:59;12.20;99.90
29551;DHT22;16488;52.396;10.696;2023-08-30T00:13:30;12.30;99.90
29551;DHT22;16488;52.396;10.696;2023-08-30T00:15:56;12.40;99.90
29551;DHT22;16488;52.396;10.696;2023-08-30T00:18:22;12.50;99.90
29551;DHT22;16488;52.396;10.696;2023-08-30T00:20:49;12.50;99.90
29551;DHT22;16488;52.396;10.696;2023-08-30T00:23:14;12.50;99.90
29551;DHT22;16488;52.396;10.696;2023-08-30T00:25:41;12.50;99.90
29551;DHT22;16488;52.396;10.696;2023-08-30T00:28:07;12.50;99.90
29551;DHT22;16488;52.396;10.696;2023-08-30T00:30:32;12.50;99.90
29551;DHT22;16488;52.396;10.696;2023-08-30T00:32:58;12.40;99.90
29551;DHT22;16488;52.396;10.696;2023-08-30T00:35:23;12.40;99.90
29551;DHT22;16488;52.396;10.696;2023-08-30T00:37:49;12.30;99.90
29551;DHT22;16488;52.396;10.696;2023-08-30T00:40:15;12.10;99.90
29551;DHT22;16488;52.396;10.696;2023-08-30T00:42:40;11.90;99.90
29551;DHT22;16488;52.396;10.696;2023-08-30T00:45:06;11.70;99.90
29551;DHT22;16488;52.396;10.696;2023-08-30T00:47:32;11.70;99.90
29551;DHT22;16488;52.396;10.696;2023-08-30T00:49:58;11.50;99.90
29551;DHT22;16488;52.396;10.696;2023-08-30T00:52:23;11.50;99.90
29551;DHT22;16488;52.396;10.696;2023-08-30T00:54:49;11.40;99.90
29551;DHT22;16488;52.396;10.696;2023-08-30T00:57:16;11.30;99.90
29551;DHT22;16488;52.396;10.696;2023-08-30T00:59:41;11.20;99.90
29551;DHT22;16488;52.396;10.696;2023-08-30T01:02:07;11.20;99.90
29551;DHT22;16488;52.396;10.696;2023-08-30T01:04:33;11.10;99.90
29551;DHT22;16488;52.396;10.696;2023-08-30T01:06:58;11.10;99.90
29551;DHT22;16488;52.396;10.696;2023-08-30T01:09:24;11.10;99.90
29551;DHT22;16488;52.396;10.696;2023-08-30T01:12:43;11.10;99.90
29551;DHT22;16488;52.396;10.696;2023-08-30T01:15:17;11.10;99.90
29551;DHT22;16488;52.396;10.696;2023-08-30T01:17:44;11.10;99.90
29551;DHT22;16488;52.396;10.696;2023-08-30T01:20:10;11.10;99.90
29551;DHT22;16488;52.396;10.696;2023-08-30T01:23:00;11.10;99.90
29551;DHT22;16488;52.396;10.696;2023-08-30T01:28:08;11.10;99.90
29551;DHT22;16488;52.396;10.696;2023-08-30T01:30:37;11.00;99.90
29551;DHT22;16488;52.396;10.696;2023-08-30T01:33:05;11.00;99.90
29551;DHT22;16488;52.396;10.696;2023-08-30T01:35:32;11.00;99.90
29551;DHT22;16488;52.396;10.696;2023-08-30T01:38:05;10.90;99.90
29551;DHT22;16488;52.396;10.696;2023-08-30T01:40:35;10.80;99.90
29551;DHT22;16488;52.396;10.696;2023-08-30T01:43:02;10.80;99.90
29551;DHT22;16488;52.396;10.696;2023-08-30T01:45:32;10.80;99.90
29551;DHT22;16488;52.396;10.696;2023-08-30T01:47:58;10.80;99.90
29551;DHT22;16488;52.396;10.696;2023-08-30T01:50:25;10.80;99.90
29551;DHT22;16488;52.396;10.696;2023-08-30T01:52:52;10.90;99.90
29551;DHT22;16488;52.396;10.696;2023-08-30T01:55:18;11.00;99.90
29551;DHT22;16488;52.396;10.696;2023-08-30T01:57:45;11.10;99.90
29551;DHT22;16488;52.396;10.696;2023-08-30T02:00:12;11.20;99.90
29551;DHT22;16488;52.396;10.696;2023-08-30T02:02:38;11.00;99.90
29551;DHT22;16488;52.396;10.696;2023-08-30T02:05:04;10.90;99.90
29551;DHT22;16488;52.396;10.696;2023-08-30T02:07:43;10.80;99.90
29551;DHT22;16488;52.396;10.696;2023-08-30T02:10:12;10.90;99.90
29551;DHT22;16488;52.396;10.696;2023-08-30T02:12:50;10.80;99.90
29551;DHT22;16488;52.396;10.696;2023-08-30T02:15:19;10.80;99.90
29551;DHT22;16488;52.396;10.696;2023-08-30T02:17:45;10.80;99.90
29551;DHT22;16488;52.396;10.696;2023-08-30T02:20:11;10.70;99.90
29551;DHT22;16488;52.396;10.696;2023-08-30T02:22:37;10.70;99.90
29551;DHT22;16488;52.396;10.696;2023-08-30T02:25:03;10.60;99.90
29551;DHT22;16488;52.396;10.696;2023-08-30T02:27:31;10.50;99.90
29551;DHT22;16488;52.396;10.696;2023-08-30T02:29:57;10.50;99.90
29551;DHT22;16488;52.396;10.696;2023-08-30T02:32:22;10.50;99.90
29551;DHT22;16488;52.396;10.696;2023-08-30T02:34:51;10.70;99.90
29551;DHT22;16488;52.396;10.696;2023-08-30T02:37:17;10.60;99.90
29551;DHT22;16488;52.396;10.696;2023-08-30T02:39:42;10.50;99.90
29551;DHT22;16488;52.396;10.696;2023-08-30T02:42:08;10.50;99.90
29551;DHT22;16488;52.396;10.696;2023-08-30T02:44:34;10.40;99.90
29551;DHT22;16488;52.396;10.696;2023-08-30T02:46:59;10.40;99.90
29551;DHT22;16488;52.396;10.696;2023-08-30T02:49:25;10.30;99.90
29551;DHT22;16488;52.396;10.696;2023-08-30T02:51:50;10.40;99.90
29551;DHT22;16488;52.396;10.696;2023-08-30T02:54:16;10.50;99.90
29551;DHT22;16488;52.396;10.696;2023-08-30T02:56:42;10.60;99.90
29551;DHT22;16488;52.396;10.696;2023-08-30T02:59:08;10.60;99.90
29551;DHT22;16488;52.396;10.696;2023-08-30T03:01:35;10.60;99.90
29551;DHT22;16488;52.396;10.696;2023-08-30T03:04:01;10.50;99.90
29551;DHT22;16488;52.396;10.696;2023-08-30T03:06:26;10.60;99.90
29551;DHT22;16488;52.396;10.696;2023-08-30T03:08:53;10.60;99.90
29551;DHT22;16488;52.396;10.696;2023-08-30T03:11:19;10.50;99.90
29551;DHT22;16488;52.396;10.696;2023-08-30T03:13:45;10.40;99.90
29551;DHT22;16488;52.396;10.696;2023-08-30T03:16:11;10.40;99.90
29551;DHT22;16488;52.396;10.696;2023-08-30T03:18:38;10.40;99.90
29551;DHT22;16488;52.396;10.696;2023-08-30T03:21:03;10.40;99.90
29551;DHT22;16488;52.396;10.696;2023-08-30T03:23:30;10.30;99.90
29551;DHT22;16488;52.396;10.696;2023-08-30T03:25:57;10.20;99.90
29551;DHT22;16488;52.396;10.696;2023-08-30T03:28:23;10.20;99.90
29551;DHT22;16488;52.396;10.696;2023-08-30T03:30:48;10.20;99.90
29551;DHT22;16488;52.396;10.696;2023-08-30T03:33:14;10.20;99.90
29551;DHT22;16488;52.396;10.696;2023-08-30T03:35:39;10.10;99.90
29551;DHT22;16488;52.396;10.696;2023-08-30T03:38:05;10.00;99.90
29551;DHT22;16488;52.396;10.696;2023-08-30T03:40:31;9.90;99.90
29551;DHT22;16488;52.396;10.696;2023-08-30T03:42:56;9.90;99.90
29551;DHT22;16488;52.396;10.696;2023-08-30T03:45:22;9.90;99.90
29551;DHT22;16488;52.396;10.696;2023-08-30T03:47:48;9.90;99.90
29551;DHT22;16488;52.396;10.696;2023-08-30T03:50:13;9.90;99.90
29551;DHT22;16488;52.396;10.696;2023-08-30T03:52:39;9.90;99.90
29551;DHT22;16488;52.396;10.696;2023-08-30T03:55:05;10.00;99.90
29551;DHT22;16488;52.396;10.696;2023-08-30T03:57:30;9.90;99.90
29551;DHT22;16488;52.396;10.696;2023-08-30T03:59:56;9.80;99.90
29551;DHT22;16488;52.396;10.696;2023-08-30T04:02:22;9.90;99.90
29551;DHT22;16488;52.396;10.696;2023-08-30T04:04:48;10.00;99.90
29551;DHT22;16488;52.396;10.696;2023-08-30T04:07:14;10.10;99.90
29551;DHT22;16488;52.396;10.696;2023-08-30T04:09:40;10.20;99.90
29551;DHT22;16488;52.396;10.696;2023-08-30T04:12:06;10.20;99.90
29551;DHT22;16488;52.396;10.696;2023-08-30T04:14:31;10.10;99.90
29551;DHT22;16488;52.396;10.696;2023-08-30T04:16:57;10.00;99.90
29551;DHT22;16488;52.396;10.696;2023-08-30T04:19:23;10.00;99.90
29551;DHT22;16488;52.396;10.696;2023-08-30T04:21:48;10.00;99.90
29551;DHT22;16488;52.396;10.696;2023-08-30T04:24:14;10.00;99.90
29551;DHT22;16488;52.396;10.696;2023-08-30T04:26:41;10.00;99.90
29551;DHT22;16488;52.396;10.696;2023-08-30T04:29:06;10.00;99.90
29551;DHT22;16488;52.396;10.696;2023-08-30T04:31:32;10.00;99.90
29551;DHT22;16488;52.396;10.696;2023-08-30T04:33:57;9.90;99.90
29551;DHT22;16488;52.396;10.696;2023-08-30T04:36:23;10.00;99.90
29551;DHT22;16488;52.396;10.696;2023-08-30T04:38:49;10.00;99.90
29551;DHT22;16488;52.396;10.696;2023-08-30T04:41:14;10.00;99.90
29551;DHT22;16488;52.396;10.696;2023-08-30T04:43:40;9.90;99.90
29551;DHT22;16488;52.396;10.696;2023-08-30T04:46:05;9.80;99.90
29551;DHT22;16488;52.396;10.696;2023-08-30T04:48:31;9.80;99.90
29551;DHT22;16488;52.396;10.696;2023-08-30T04:51:04;9.80;99.90
29551;DHT22;16488;52.396;10.696;2023-08-30T04:53:30;9.70;99.90
29551;DHT22;16488;52.396;10.696;2023-08-30T04:55:56;9.70;99.90
29551;DHT22;16488;52.396;10.696;2023-08-30T04:58:21;9.60;99.90
29551;DHT22;16488;52.396;10.696;2023-08-30T05:00:47;9.60;99.90
29551;DHT22;16488;52.396;10.696;2023-08-30T05:03:13;9.70;99.90
29551;DHT22;16488;52.396;10.696;2023-08-30T05:05:39;9.80;99.90
29551;DHT22;16488;52.396;10.696;2023-08-30T05:08:05;9.80;99.90
29551;DHT22;16488;52.396;10.696;2023-08-30T05:10:30;9.80;99.90
29551;DHT22;16488;52.396;10.696;2023-08-30T05:12:57;9.90;99.90
29551;DHT22;16488;52.396;10.696;2023-08-30T05:15:23;9.90;99.90
29551;DHT22;16488;52.396;10.696;2023-08-30T05:17:48;10.00;99.90
29551;DHT22;16488;52.396;10.696;2023-08-30T05:20:14;10.00;99.90
29551;DHT22;16488;52.396;10.696;2023-08-30T05:22:39;10.00;99.90
29551;DHT22;16488;52.396;10.696;2023-08-30T05:25:05;10.10;99.90
29551;DHT22;16488;52.396;10.696;2023-08-30T05:27:31;10.20;99.90
29551;DHT22;16488;52.396;10.696;2023-08-30T05:29:56;10.30;99.90
29551;DHT22;16488;52.396;10.696;2023-08-30T05:32:22;10.50;99.90
29551;DHT22;16488;52.396;10.696;2023-08-30T05:34:47;10.60;99.90
29551;DHT22;16488;52.396;10.696;2023-08-30T05:37:13;10.70;99.90
29551;DHT22;16488;52.396;10.696;2023-08-30T05:39:39;10.80;99.90
29551;DHT22;16488;52.396;10.696;2023-08-30T05:42:05;10.90;99.90
29551;DHT22;16488;52.396;10.696;2023-08-30T05:44:30;11.10;99.90
29551;DHT22;16488;52.396;10.696;2023-08-30T05:46:56;11.20;99.90
29551;DHT22;16488;52.396;10.696;2023-08-30T05:49:22;11.40;99.90
29551;DHT22;16488;52.396;10.696;2023-08-30T05:51:47;11.50;99.90
29551;DHT22;16488;52.396;10.696;2023-08-30T05:54:13;11.70;99.90
29551;DHT22;16488;52.396;10.696;2023-08-30T05:56:39;11.90;99.90
29551;DHT22;16488;52.396;10.696;2023-08-30T05:59:05;12.00;99.90
29551;DHT22;16488;52.396;10.696;2023-08-30T06:01:30;12.20;99.90
29551;DHT22;16488;52.396;10.696;2023-08-30T06:03:56;12.30;99.90
29551;DHT22;16488;52.396;10.696;2023-08-30T06:06:22;12.40;99.90
29551;DHT22;16488;52.396;10.696;2023-08-30T06:08:47;12.50;99.90
29551;DHT22;16488;52.396;10.696;2023-08-30T06:11:13;12.70;99.90
29551;DHT22;16488;52.396;10.696;2023-08-30T06:13:40;12.80;99.90
29551;DHT22;16488;52.396;10.696;2023-08-30T06:16:06;12.80;99.90
29551;DHT22;16488;52.396;10.696;2023-08-30T06:18:31;12.90;99.90
29551;DHT22;16488;52.396;10.696;2023-08-30T06:20:58;13.00;99.90
29551;DHT22;16488;52.396;10.696;2023-08-30T06:23:23;13.10;99.90
29551;DHT22;16488;52.396;10.696;2023-08-30T06:25:56;13.20;99.90
29551;DHT22;16488;52.396;10.696;2023-08-30T06:28:22;13.30;99.90
29551;DHT22;16488;52.396;10.696;2023-08-30T06:30:48;13.40;99.90
29551;DHT22;16488;52.396;10.696;2023-08-30T06:33:14;13.40;99.90
29551;DHT22;16488;52.396;10.696;2023-08-30T06:35:39;13.50;99.90
29551;DHT22;16488;52.396;10.696;2023-08-30T06:38:06;13.60;99.90
29551;DHT22;16488;52.396;10.696;2023-08-30T06:40:32;13.80;99.90
29551;DHT22;16488;52.396;10.696;2023-08-30T06:42:58;13.90;99.90
29551;DHT22;16488;52.396;10.696;2023-08-30T06:45:24;14.00;99.90
29551;DHT22;16488;52.396;10.696;2023-08-30T06:47:50;14.10;99.90
29551;DHT22;16488;52.396;10.696;2023-08-30T06:50:18;14.20;99.90
29551;DHT22;16488;52.396;10.696;2023-08-30T06:52:43;14.30;99.90
29551;DHT22;16488;52.396;10.696;2023-08-30T06:55:09;14.50;99.90
29551;DHT22;16488;52.396;10.696;2023-08-30T06:57:35;14.70;99.90
29551;DHT22;16488;52.396;10.696;2023-08-30T07:00:01;14.80;99.90
29551;DHT22;16488;52.396;10.696;2023-08-30T07:02:33;14.90;99.90
29551;DHT22;16488;52.396;10.696;2023-08-30T07:04:59;15.00;99.90
29551;DHT22;16488;52.396;10.696;2023-08-30T07:07:25;15.10;99.90
29551;DHT22;16488;52.396;10.696;2023-08-30T07:09:51;15.10;99.90
29551;DHT22;16488;52.396;10.696;2023-08-30T07:12:17;15.20;99.90
29551;DHT22;16488;52.396;10.696;2023-08-30T07:14:42;15.20;99.90
29551;DHT22;16488;52.396;10.696;2023-08-30T07:17:08;15.30;99.90
29551;DHT22;16488;52.396;10.696;2023-08-30T07:19:34;15.30;99.90
29551;DHT22;16488;52.396;10.696;2023-08-30T07:22:00;15.40;99.90
29551;DHT22;16488;52.396;10.696;2023-08-30T07:24:26;15.40;99.90
29551;DHT22;16488;52.396;10.696;2023-08-30T07:26:51;15.50;99.90
29551;DHT22;16488;52.396;10.696;2023-08-30T07:29:17;15.60;99.90
29551;DHT22;16488;52.396;10.696;2023-08-30T07:31:42;15.60;99.90
29551;DHT22;16488;52.396;10.696;2023-08-30T07:34:08;15.60;99.90
29551;DHT22;16488;52.396;10.696;2023-08-30T07:36:34;15.60;99.90
29551;DHT22;16488;52.396;10.696;2023-08-30T07:39:01;15.70;99.90
29551;DHT22;16488;52.396;10.696;2023-08-30T07:41:27;15.70;99.90
29551;DHT22;16488;52.396;10.696;2023-08-30T07:43:53;15.70;99.90
29551;DHT22;16488;52.396;10.696;2023-08-30T07:46:18;15.80;99.90
29551;DHT22;16488;52.396;10.696;2023-08-30T07:48:44;15.80;99.90
29551;DHT22;16488;52.396;10.696;2023-08-30T07:51:10;15.90;99.90
29551;DHT22;16488;52.396;10.696;2023-08-30T07:53:35;15.90;99.90
29551;DHT22;16488;52.396;10.696;2023-08-30T07:56:01;16.00;99.90
29551;DHT22;16488;52.396;10.696;2023-08-30T07:58:26;16.00;99.90
29551;DHT22;16488;52.396;10.696;2023-08-30T08:00:52;16.10;99.90
29551;DHT22;16488;52.396;10.696;2023-08-30T08:03:20;16.10;99.90
29551;DHT22;16488;52.396;10.696;2023-08-30T08:05:46;16.20;99.90
29551;DHT22;16488;52.396;10.696;2023-08-30T08:08:11;16.30;99.90
29551;DHT22;16488;52.396;10.696;2023-08-30T08:10:37;16.50;99.90
29551;DHT22;16488;52.396;10.696;2023-08-30T08:13:03;16.60;99.90
29551;DHT22;16488;52.396;10.696;2023-08-30T08:15:31;16.70;99.90
29551;DHT22;16488;52.396;10.696;2023-08-30T08:17:58;16.70;99.90
29551;DHT22;16488;52.396;10.696;2023-08-30T08:20:23;16.80;99.90
29551;DHT22;16488;52.396;10.696;2023-08-30T08:22:49;16.80;99.90
29551;DHT22;16488;52.396;10.696;2023-08-30T08:25:15;16.80;99.90
29551;DHT22;16488;52.396;10.696;2023-08-30T08:27:41;16.90;99.90
29551;DHT22;16488;52.396;10.696;2023-08-30T08:30:07;16.80;99.90
29551;DHT22;16488;52.396;10.696;2023-08-30T08:32:33;16.90;99.90
29551;DHT22;16488;52.396;10.696;2023-08-30T08:34:59;16.90;99.90
29551;DHT22;16488;52.396;10.696;2023-08-30T08:37:24;16.90;99.90
29551;DHT22;16488;52.396;10.696;2023-08-30T08:39:50;17.00;99.90
29551;DHT22;16488;52.396;10.696;2023-08-30T08:42:19;17.20;99.90
29551;DHT22;16488;52.396;10.696;2023-08-30T08:44:51;17.20;99.90
29551;DHT22;16488;52.396;10.696;2023-08-30T08:47:20;17.20;99.90
29551;DHT22;16488;52.396;10.696;2023-08-30T08:49:46;17.20;99.90
29551;DHT22;16488;52.396;10.696;2023-08-30T08:52:13;17.20;99.90
29551;DHT22;16488;52.396;10.696;2023-08-30T08:54:39;17.20;99.90
29551;DHT22;16488;52.396;10.696;2023-08-30T08:57:07;17.30;99.90
29551;DHT22;16488;52.396;10.696;2023-08-30T08:59:33;17.40;99.90
29551;DHT22;16488;52.396;10.696;2023-08-30T09:02:02;17.50;99.90
29551;DHT22;16488;52.396;10.696;2023-08-30T09:04:31;17.50;99.90
29551;DHT22;16488;52.396;10.696;2023-08-30T09:07:01;17.60;99.90
29551;DHT22;16488;52.396;10.696;2023-08-30T09:09:27;17.60;99.90
29551;DHT22;16488;52.396;10.696;2023-08-30T09:11:53;17.80;99.90
29551;DHT22;16488;52.396;10.696;2023-08-30T09:14:19;17.90;99.90
29551;DHT22;16488;52.396;10.696;2023-08-30T09:16:55;18.00;99.90
29551;DHT22;16488;52.396;10.696;2023-08-30T09:19:21;17.90;99.90
29551;DHT22;16488;52.396;10.696;2023-08-30T09:21:54;18.00;99.90
29551;DHT22;16488;52.396;10.696;2023-08-30T09:24:20;18.10;99.90
29551;DHT22;16488;52.396;10.696;2023-08-30T09:26:53;18.20;99.90
29551;DHT22;16488;52.396;10.696;2023-08-30T09:29:20;18.30;99.90
29551;DHT22;16488;52.396;10.696;2023-08-30T09:31:51;18.30;99.90
29551;DHT22;16488;52.396;10.696;2023-08-30T09:34:16;18.30;99.90
29551;DHT22;16488;52.396;10.696;2023-08-30T09:36:42;18.40;99.90
29551;DHT22;16488;52.396;10.696;2023-08-30T09:39:09;18.60;99.90
29551;DHT22;16488;52.396;10.696;2023-08-30T09:44:17;18.80;99.90
29551;DHT22;16488;52.396;10.696;2023-08-30T09:46:50;18.80;99.90
29551;DHT22;16488;52.396;10.696;2023-08-30T09:49:21;19.00;99.90
29551;DHT22;16488;52.396;10.696;2023-08-30T09:51:48;19.00;99.90
29551;DHT22;16488;52.396;10.696;2023-08-30T09:54:18;19.10;99.90
29551;DHT22;16488;52.396;10.696;2023-08-30T09:56:45;19.10;99.90
29551;DHT22;16488;52.396;10.696;2023-08-30T09:59:11;19.10;99.90
29551;DHT22;16488;52.396;10.696;2023-08-30T10:01:37;19.20;99.90
29551;DHT22;16488;52.396;10.696;2023-08-30T10:04:03;19.30;99.90
29551;DHT22;16488;52.396;10.696;2023-08-30T10:06:29;19.30;99.90
29551;DHT22;16488;52.396;10.696;2023-08-30T10:08:56;19.30;99.90
29551;DHT22;16488;52.396;10.696;2023-08-30T10:11:24;19.30;99.90
29551;DHT22;16488;52.396;10.696;2023-08-30T10:13:51;19.30;99.90
29551;DHT22;16488;52.396;10.696;2023-08-30T10:16:23;19.40;99.90
29551;DHT22;16488;52.396;10.696;2023-08-30T10:18:53;19.40;99.90
29551;DHT22;16488;52.396;10.696;2023-08-30T10:21:20;19.30;99.90
29551;DHT22;16488;52.396;10.696;2023-08-30T10:23:48;19.30;99.90
29551;DHT22;16488;52.396;10.696;2023-08-30T10:26:16;19.30;99.90
29551;DHT22;16488;52.396;10.696;2023-08-30T10:28:44;19.50;99.90
29551;DHT22;16488;52.396;10.696;2023-08-30T10:31:12;19.40;99.90
29551;DHT22;16488;52.396;10.696;2023-08-30T10:33:53;19.40;99.90
29551;DHT22;16488;52.396;10.696;2023-08-30T10:36:26;19.40;99.90
29551;DHT22;16488;52.396;10.696;2023-08-30T10:38:53;19.40;99.90
29551;DHT22;16488;52.396;10.696;2023-08-30T10:41:26;19.50;99.90
29551;DHT22;16488;52.396;10.696;2023-08-30T10:43:54;19.50;99.90
29551;DHT22;16488;52.396;10.696;2023-08-30T10:46:33;19.60;99.90
29551;DHT22;16488;52.396;10.696;2023-08-30T10:49:14;19.80;99.90
29551;DHT22;16488;52.396;10.696;2023-08-30T10:51:41;20.00;99.90
29551;DHT22;16488;52.396;10.696;2023-08-30T10:54:14;20.10;99.90
29551;DHT22;16488;52.396;10.696;2023-08-30T10:56:57;20.20;99.90
29551;DHT22;16488;52.396;10.696;2023-08-30T10:59:25;20.10;99.90
29551;DHT22;16488;52.396;10.696;2023-08-30T11:01:52;20.00;99.90
29551;DHT22;16488;52.396;10.696;2023-08-30T11:04:19;19.70;99.90
29551;DHT22;16488;52.396;10.696;2023-08-30T11:06:45;19.50;99.90
29551;DHT22;16488;52.396;10.696;2023-08-30T11:09:19;19.50;99.90
29551;DHT22;16488;52.396;10.696;2023-08-30T11:11:48;19.60;99.90
29551;DHT22;16488;52.396;10.696;2023-08-30T11:14:15;19.70;99.90
29551;DHT22;16488;52.396;10.696;2023-08-30T11:16:41;19.80;99.90
29551;DHT22;16488;52.396;10.696;2023-08-30T11:19:08;19.90;99.90
29551;DHT22;16488;52.396;10.696;2023-08-30T11:21:44;20.00;99.90
29551;DHT22;16488;52.396;10.696;2023-08-30T11:24:10;20.10;99.90
29551;DHT22;16488;52.396;10.696;2023-08-30T11:26:37;20.10;99.90
29551;DHT22;16488;52.396;10.696;2023-08-30T11:29:07;20.00;99.90
29551;DHT22;16488;52.396;10.696;2023-08-30T11:31:33;19.80;99.90
29551;DHT22;16488;52.396;10.696;2023-08-30T11:33:59;19.80;99.90
29551;DHT22;16488;52.396;10.696;2023-08-30T11:36:28;19.80;99.90
29551;DHT22;16488;52.396;10.696;2023-08-30T11:38:54;19.80;99.90
29551;DHT22;16488;52.396;10.696;2023-08-30T11:41:21;19.90;99.90
29551;DHT22;16488;52.396;10.696;2023-08-30T11:43:53;20.10;99.90
29551;DHT22;16488;52.396;10.696;2023-08-30T11:46:20;19.90;99.90
29551;DHT22;16488;52.396;10.696;2023-08-30T11:48:47;19.90;99.90
29551;DHT22;16488;52.396;10.696;2023-08-30T11:51:13;19.90;99.90
29551;DHT22;16488;52.396;10.696;2023-08-30T11:53:39;19.90;99.90
29551;DHT22;16488;52.396;10.696;2023-08-30T11:56:06;19.90;99.90
29551;DHT22;16488;52.396;10.696;2023-08-30T11:58:33;19.90;99.90
29551;DHT22;16488;52.396;10.696;2023-08-30T12:00:59;19.90;99.90
29551;DHT22;16488;52.396;10.696;2023-08-30T12:03:29;20.00;99.90
29551;DHT22;16488;52.396;10.696;2023-08-30T12:05:55;20.00;99.90
29551;DHT22;16488;52.396;10.696;2023-08-30T12:08:26;19.90;99.90
29551;DHT22;16488;52.396;10.696;2023-08-30T12:10:53;20.00;99.90
29551;DHT22;16488;52.396;10.696;2023-08-30T12:13:25;20.10;99.90
29551;DHT22;16488;52.396;10.696;2023-08-30T12:15:56;20.30;99.90
29551;DHT22;16488;52.396;10.696;2023-08-30T12:18:42;20.20;99.90
29551;DHT22;16488;52.396;10.696;2023-08-30T12:21:08;20.20;99.90
29551;DHT22;16488;52.396;10.696;2023-08-30T12:23:34;20.20;99.90
29551;DHT22;16488;52.396;10.696;2023-08-30T12:26:06;20.20;99.90
29551;DHT22;16488;52.396;10.696;2023-08-30T12:28:34;20.20;99.90
29551;DHT22;16488;52.396;10.696;2023-08-30T12:31:00;20.30;99.90
29551;DHT22;16488;52.396;10.696;2023-08-30T12:33:26;20.20;99.90
29551;DHT22;16488;52.396;10.696;2023-08-30T12:35:54;20.20;99.90
29551;DHT22;16488;52.396;10.696;2023-08-30T12:38:20;20.10;99.90
29551;DHT22;16488;52.396;10.696;2023-08-30T12:40:47;20.10;99.90
29551;DHT22;16488;52.396;10.696;2023-08-30T12:43:13;20.00;99.90
29551;DHT22;16488;52.396;10.696;2023-08-30T12:45:39;19.90;99.90
29551;DHT22;16488;52.396;10.696;2023-08-30T12:48:09;19.90;99.90
29551;DHT22;16488;52.396;10.696;2023-08-30T12:50:38;19.90;99.90
29551;DHT22;16488;52.396;10.696;2023-08-30T12:53:08;20.00;99.90
29551;DHT22;16488;52.396;10.696;2023-08-30T12:55:34;20.00;99.90
29551;DHT22;16488;52.396;10.696;2023-08-30T12:58:00;20.10;99.90
29551;DHT22;16488;52.396;10.696;2023-08-30T13:00:26;20.20;99.90
29551;DHT22;16488;52.396;10.696;2023-08-30T13:02:52;20.10;99.90
29551;DHT22;16488;52.396;10.696;2023-08-30T13:05:18;20.00;99.90
29551;DHT22;16488;52.396;10.696;2023-08-30T13:07:44;20.00;99.90
29551;DHT22;16488;52.396;10.696;2023-08-30T13:10:11;20.00;99.90
29551;DHT22;16488;52.396;10.696;2023-08-30T13:12:36;19.90;99.90
29551;DHT22;16488;52.396;10.696;2023-08-30T13:15:03;19.80;99.90
29551;DHT22;16488;52.396;10.696;2023-08-30T13:17:29;19.70;99.90
29551;DHT22;16488;52.396;10.696;2023-08-30T13:19:54;19.70;99.90
29551;DHT22;16488;52.396;10.696;2023-08-30T13:22:22;19.70;99.90
29551;DHT22;16488;52.396;10.696;2023-08-30T13:24:47;19.70;99.90
29551;DHT22;16488;52.396;10.696;2023-08-30T13:27:13;19.70;99.90
29551;DHT22;16488;52.396;10.696;2023-08-30T13:29:39;19.70;99.90
29551;DHT22;16488;52.396;10.696;2023-08-30T13:32:04;19.70;99.90
29551;DHT22;16488;52.396;10.696;2023-08-30T13:34:30;19.60;99.90
29551;DHT22;16488;52.396;10.696;2023-08-30T13:36:56;19.70;99.90
29551;DHT22;16488;52.396;10.696;2023-08-30T13:39:21;19.70;99.90
29551;DHT22;16488;52.396;10.696;2023-08-30T13:41:47;19.70;99.90
29551;DHT22;16488;52.396;10.696;2023-08-30T13:44:14;19.70;99.90
29551;DHT22;16488;52.396;10.696;2023-08-30T13:46:39;19.70;99.90
29551;DHT22;16488;52.396;10.696;2023-08-30T13:49:05;19.60;99.90
29551;DHT22;16488;52.396;10.696;2023-08-30T13:51:31;19.60;99.90
29551;DHT22;16488;52.396;10.696;2023-08-30T13:53:56;19.60;99.90
29551;DHT22;16488;52.396;10.696;2023-08-30T13:56:23;19.60;99.90
29551;DHT22;16488;52.396;10.696;2023-08-30T13:58:49;19.60;99.90
29551;DHT22;16488;52.396;10.696;2023-08-30T14:01:14;19.60;99.90
29551;DHT22;16488;52.396;10.696;2023-08-30T14:03:40;19.60;99.90
29551;DHT22;16488;52.396;10.696;2023-08-30T14:06:06;19.60;99.90
29551;DHT22;16488;52.396;10.696;2023-08-30T14:08:32;19.50;99.90
29551;DHT22;16488;52.396;10.696;2023-08-30T14:10:58;19.50;99.90
29551;DHT22;16488;52.396;10.696;2023-08-30T14:13:23;19.50;99.90
29551;DHT22;16488;52.396;10.696;2023-08-30T14:15:49;19.60;99.90
29551;DHT22;16488;52.396;10.696;2023-08-30T14:18:15;19.60;99.90
29551;DHT22;16488;52.396;10.696;2023-08-30T14:20:42;19.60;99.90
29551;DHT22;16488;52.396;10.696;2023-08-30T14:23:08;19.60;99.90
29551;DHT22;16488;52.396;10.696;2023-08-30T14:25:33;19.80;99.90
29551;DHT22;16488;52.396;10.696;2023-08-30T14:27:59;19.90;99.90
29551;DHT22;16488;52.396;10.696;2023-08-30T14:30:26;20.10;99.90
29551;DHT22;16488;52.396;10.696;2023-08-30T14:32:52;20.20;99.90
29551;DHT22;16488;52.396;10.696;2023-08-30T14:35:18;20.30;99.90
29551;DHT22;16488;52.396;10.696;2023-08-30T14:37:46;20.30;99.90
29551;DHT22;16488;52.396;10.696;2023-08-30T14:40:13;20.40;99.90
29551;DHT22;16488;52.396;10.696;2023-08-30T14:42:38;20.60;99.90
29551;DHT22;16488;52.396;10.696;2023-08-30T14:45:05;20.50;99.90
29551;DHT22;16488;52.396;10.696;2023-08-30T14:47:33;20.50;99.90
29551;DHT22;16488;52.396;10.696;2023-08-30T14:49:58;20.50;99.90
29551;DHT22;16488;52.396;10.696;2023-08-30T14:52:24;20.60;99.90
29551;DHT22;16488;52.396;10.696;2023-08-30T14:54:50;20.70;99.90
29551;DHT22;16488;52.396;10.696;2023-08-30T14:57:15;20.80;99.90
29551;DHT22;16488;52.396;10.696;2023-08-30T14:59:41;20.80;99.90
29551;DHT22;16488;52.396;10.696;2023-08-30T15:02:06;20.90;99.90
29551;DHT22;16488;52.396;10.696;2023-08-30T15:04:32;21.00;99.90
29551;DHT22;16488;52.396;10.696;2023-08-30T15:06:58;21.10;99.90
29551;DHT22;16488;52.396;10.696;2023-08-30T15:09:23;21.10;99.90
29551;DHT22;16488;52.396;10.696;2023-08-30T15:11:49;21.00;99.90
29551;DHT22;16488;52.396;10.696;2023-08-30T15:14:14;21.00;99.90
29551;DHT22;16488;52.396;10.696;2023-08-30T15:16:40;20.80;99.90
29551;DHT22;16488;52.396;10.696;2023-08-30T15:19:06;20.60;99.90
29551;DHT22;16488;52.396;10.696;2023-08-30T15:21:31;20.40;99.90